createdAt,value
2022-12-12T00:00:41.658Z,99048.88
2022-12-12T00:03:08.302Z,99052.84
2022-12-12T00:05:34.937Z,99047.22
2022-12-12T00:08:01.593Z,99050.47
2022-12-12T00:10:28.409Z,99064.03
2022-12-12T00:12:55.115Z,99065.03
2022-12-12T00:15:21.738Z,99057.78
2022-12-12T00:17:48.490Z,99056.03
2022-12-12T00:20:15.316Z,99055.41
2022-12-12T00:22:41.843Z,99057.47
2022-12-12T00:25:08.946Z,99050.56
2022-12-12T00:27:35.514Z,99061.00
2022-12-12T00:30:02.261Z,99068.28
2022-12-12T00:32:28.776Z,99069.69
2022-12-12T00:34:55.257Z,99073.34
2022-12-12T00:37:21.819Z,99059.69
2022-12-12T00:39:48.795Z,99061.47
2022-12-12T00:42:15.512Z,99060.94
2022-12-12T00:44:42.016Z,99057.94
2022-12-12T00:47:08.565Z,99058.22
2022-12-12T00:49:35.252Z,99045.13
2022-12-12T00:52:02.209Z,99049.53
2022-12-12T00:54:28.756Z,99046.22
2022-12-12T00:56:55.239Z,99035.56
2022-12-12T00:59:22.902Z,99039.16
2022-12-12T01:01:49.638Z,99052.09
2022-12-12T01:04:16.334Z,99043.69
2022-12-12T01:06:42.837Z,99058.97
2022-12-12T01:09:09.414Z,99053.03
2022-12-12T01:11:36.017Z,99057.78
2022-12-12T01:14:02.672Z,99057.88
2022-12-12T01:16:30.177Z,99053.59
2022-12-12T01:18:57.047Z,99059.88
2022-12-12T01:21:24.500Z,99057.81
2022-12-12T01:23:51.144Z,99059.31
2022-12-12T01:26:20.814Z,99059.19
2022-12-12T01:28:47.947Z,99056.44
2022-12-12T01:31:15.360Z,99046.16
2022-12-12T01:33:46.321Z,99050.97
2022-12-12T01:36:20.201Z,99048.78
2022-12-12T01:38:48.330Z,99046.47
2022-12-12T01:41:16.090Z,99052.94
2022-12-12T01:43:43.462Z,99051.78
2022-12-12T01:46:22.330Z,99043.66
2022-12-12T01:48:53.850Z,99040.19
2022-12-12T01:51:24.247Z,99049.59
2022-12-12T01:53:58.041Z,99049.09
2022-12-12T01:56:25.607Z,99050.53
2022-12-12T01:58:53.871Z,99056.53
2022-12-12T02:01:22.131Z,99056.44
2022-12-12T02:03:49.735Z,99065.75
2022-12-12T02:06:22.392Z,99057.31
2022-12-12T02:08:51.234Z,99054.00
2022-12-12T02:11:17.852Z,99041.59
2022-12-12T02:13:45.058Z,99054.47
2022-12-12T02:16:33.430Z,99057.66
2022-12-12T02:19:24.795Z,99062.50
2022-12-12T02:22:10.105Z,99064.56
2022-12-12T02:24:54.686Z,99059.50
2022-12-12T02:27:49.846Z,99046.59
2022-12-12T02:30:42.328Z,99052.25
2022-12-12T02:34:02.424Z,99051.94
2022-12-12T02:36:48.052Z,99046.03
2022-12-12T02:39:28.384Z,99039.63
2022-12-12T02:42:10.787Z,99047.94
2022-12-12T02:44:45.081Z,99045.25
2022-12-12T02:47:19.613Z,99046.28
2022-12-12T02:50:01.462Z,99047.84
2022-12-12T02:52:28.948Z,99053.28
2022-12-12T02:54:55.479Z,99053.69
2022-12-12T02:57:24.720Z,99063.53
2022-12-12T03:00:05.581Z,99061.59
2022-12-12T03:02:45.898Z,99068.19
2022-12-12T03:05:58.339Z,99069.84
2022-12-12T03:08:33.648Z,99067.09
2022-12-12T03:11:04.649Z,99062.56
2022-12-12T03:13:45.685Z,99078.66
2022-12-12T03:16:21.359Z,99074.09
2022-12-12T03:18:53.780Z,99071.56
2022-12-12T03:21:35.526Z,99078.13
2022-12-12T03:24:22.804Z,99090.75
2022-12-12T03:27:03.025Z,99099.97
2022-12-12T03:29:36.405Z,99104.66
2022-12-12T03:32:13.381Z,99109.47
2022-12-12T03:34:46.042Z,99108.88
2022-12-12T03:37:20.817Z,99119.56
2022-12-12T03:39:52.892Z,99124.75
2022-12-12T03:42:24.789Z,99123.94
2022-12-12T03:45:06.282Z,99116.34
2022-12-12T03:47:39.693Z,99108.72
2022-12-12T03:50:19.791Z,99110.72
2022-12-12T03:53:19.817Z,99115.19
2022-12-12T03:55:52.767Z,99120.00
2022-12-12T03:58:25.245Z,99110.34
2022-12-12T04:00:56.606Z,99107.38
2022-12-12T04:03:32.258Z,99122.78
2022-12-12T04:06:28.149Z,99116.78
2022-12-12T04:09:25.968Z,99110.47
2022-12-12T04:12:36.175Z,99098.13
2022-12-12T04:15:21.207Z,99086.94
2022-12-12T04:17:56.780Z,99076.53
2022-12-12T04:20:54.904Z,99064.53
2022-12-12T04:23:50.520Z,99046.63
2022-12-12T04:26:39.457Z,99041.13
2022-12-12T04:29:27.622Z,99061.13
2022-12-12T04:32:05.791Z,99048.88
2022-12-12T04:34:50.337Z,99050.38
2022-12-12T04:37:22.746Z,99039.34
2022-12-12T04:39:52.445Z,99029.09
2022-12-12T04:42:22.460Z,99020.25
2022-12-12T04:44:52.405Z,99022.78
2022-12-12T04:47:20.457Z,99019.78
2022-12-12T04:49:50.588Z,99014.66
2022-12-12T04:52:21.052Z,99011.03
2022-12-12T04:54:47.586Z,99010.78
2022-12-12T04:57:22.070Z,99003.41
2022-12-12T04:59:49.006Z,98998.91
2022-12-12T05:02:31.222Z,99002.38
2022-12-12T05:05:02.729Z,98999.94
2022-12-12T05:07:37.906Z,99003.19
2022-12-12T05:10:10.802Z,99015.66
2022-12-12T05:12:43.742Z,99008.41
2022-12-12T05:15:11.222Z,99009.91
2022-12-12T05:17:44.699Z,99023.34
2022-12-12T05:20:11.627Z,99027.53
2022-12-12T05:22:38.124Z,99016.84
2022-12-12T05:25:05.627Z,99015.28
2022-12-12T05:27:32.174Z,99013.66
2022-12-12T05:29:58.730Z,98996.88
2022-12-12T05:32:25.296Z,99006.94
2022-12-12T05:34:52.009Z,99011.19
2022-12-12T05:37:18.491Z,99018.59
2022-12-12T05:39:45.019Z,99022.13
2022-12-12T05:42:11.532Z,99017.03
2022-12-12T05:44:38.078Z,99018.13
2022-12-12T05:47:04.677Z,99021.53
2022-12-12T05:49:31.190Z,99017.97
2022-12-12T05:51:57.727Z,99008.41
2022-12-12T05:54:24.258Z,99004.94
2022-12-12T05:56:50.764Z,99006.94
2022-12-12T05:59:17.273Z,99009.34
2022-12-12T06:01:43.757Z,99019.53
2022-12-12T06:04:10.316Z,99010.28
2022-12-12T06:06:37.402Z,99000.53
2022-12-12T06:09:03.889Z,99009.78
2022-12-12T06:11:30.373Z,99025.00
2022-12-12T06:13:56.918Z,99035.97
2022-12-12T06:16:23.484Z,99027.63
2022-12-12T06:18:54.882Z,99018.66
2022-12-12T06:21:22.015Z,99014.34
2022-12-12T06:23:49.473Z,99014.06
2022-12-12T06:26:19.000Z,99005.09
2022-12-12T06:28:46.828Z,99006.66
2022-12-12T06:31:14.641Z,99015.03
2022-12-12T06:33:42.836Z,99027.13
2022-12-12T06:36:13.969Z,99053.56
2022-12-12T06:38:41.088Z,99044.47
2022-12-12T06:41:13.300Z,99028.81
2022-12-12T06:43:41.377Z,99030.38
2022-12-12T06:46:15.541Z,99032.44
2022-12-12T06:48:43.307Z,99029.78
2022-12-12T06:51:13.371Z,99019.28
2022-12-12T06:53:39.857Z,99025.72
2022-12-12T06:56:08.885Z,99014.44
2022-12-12T06:58:36.127Z,99014.44
2022-12-12T07:01:03.797Z,99012.13
2022-12-12T07:03:30.387Z,99006.81
2022-12-12T07:05:56.930Z,99007.19
2022-12-12T07:08:23.640Z,98980.84
2022-12-12T07:10:50.182Z,98984.28
2022-12-12T07:13:16.849Z,98988.34
2022-12-12T07:15:45.168Z,99002.59
2022-12-12T07:18:12.874Z,99006.22
2022-12-12T07:20:44.816Z,99004.13
2022-12-12T07:23:13.113Z,99000.94
2022-12-12T07:25:41.770Z,99007.53
2022-12-12T07:28:10.315Z,99001.56
2022-12-12T07:30:43.839Z,99003.25
2022-12-12T07:33:12.320Z,99001.50
2022-12-12T07:35:39.045Z,98997.41
2022-12-12T07:38:06.062Z,98997.78
2022-12-12T07:40:33.773Z,98994.84
2022-12-12T07:43:01.055Z,98998.94
2022-12-12T07:45:28.248Z,98991.69
2022-12-12T07:47:55.023Z,98978.41
2022-12-12T07:50:22.060Z,98972.41
2022-12-12T07:52:48.772Z,98980.38
2022-12-12T07:55:15.905Z,98992.44
2022-12-12T07:57:42.724Z,98996.78
2022-12-12T08:00:13.758Z,98994.66
2022-12-12T08:02:40.461Z,98992.13
2022-12-12T08:05:07.817Z,98990.22
2022-12-12T08:07:34.344Z,98991.13
2022-12-12T08:10:00.883Z,98979.53
2022-12-12T08:12:31.232Z,98983.81
2022-12-12T08:14:57.835Z,98973.44
2022-12-12T08:17:24.941Z,98967.72
2022-12-12T08:19:52.129Z,98973.97
2022-12-12T08:22:20.297Z,98964.91
2022-12-12T08:24:49.810Z,98962.53
2022-12-12T08:27:16.833Z,98965.38
2022-12-12T08:29:44.829Z,98966.09
2022-12-12T08:32:12.100Z,98969.47
2022-12-12T08:34:38.596Z,98978.31
2022-12-12T08:37:05.260Z,98974.81
2022-12-12T08:39:31.788Z,98967.19
2022-12-12T08:41:58.918Z,98967.19
2022-12-12T08:44:25.464Z,98969.56
2022-12-12T08:46:52.096Z,98973.91
2022-12-12T08:49:18.783Z,98987.69
2022-12-12T08:51:45.493Z,98981.22
2022-12-12T08:54:13.000Z,98971.03
2022-12-12T08:56:40.389Z,98970.09
2022-12-12T08:59:07.024Z,98977.03
2022-12-12T09:01:33.623Z,98989.81
2022-12-12T09:04:00.230Z,98985.78
2022-12-12T09:06:27.149Z,98976.63
2022-12-12T09:08:55.094Z,98981.09
2022-12-12T09:11:21.663Z,98999.94
2022-12-12T09:13:48.843Z,99006.00
2022-12-12T09:16:15.481Z,98993.22
2022-12-12T09:18:48.558Z,99011.69
2022-12-12T09:21:16.248Z,99011.91
2022-12-12T09:23:42.896Z,99023.75
2022-12-12T09:26:10.357Z,99037.63
2022-12-12T09:28:37.122Z,99033.03
2022-12-12T09:31:07.041Z,99024.94
2022-12-12T09:33:33.700Z,99038.16
2022-12-12T09:36:02.357Z,99039.59
2022-12-12T09:38:28.972Z,99038.69
2022-12-12T09:41:20.266Z,99040.19
2022-12-12T09:43:51.614Z,99049.25
2022-12-12T09:46:34.850Z,99053.34
2022-12-12T09:49:31.840Z,99045.72
2022-12-12T09:52:00.075Z,99054.38
2022-12-12T09:54:27.076Z,99064.13
2022-12-12T09:57:12.102Z,99055.09
2022-12-12T09:59:47.432Z,99044.34
2022-12-12T10:02:38.417Z,99024.66
2022-12-12T10:05:17.594Z,99050.47
2022-12-12T10:07:54.367Z,99032.25
2022-12-12T10:10:46.901Z,99017.59
2022-12-12T10:13:20.992Z,99004.88
2022-12-12T10:16:02.938Z,98992.78
2022-12-12T10:18:47.269Z,99002.25
2022-12-12T10:21:22.459Z,99007.75
2022-12-12T10:23:51.774Z,99000.56
2022-12-12T10:26:25.060Z,98991.50
2022-12-12T10:28:57.372Z,98980.47
2022-12-12T10:31:32.910Z,98979.34
2022-12-12T10:34:33.052Z,98962.34
2022-12-12T10:36:59.510Z,98955.00
2022-12-12T10:39:35.141Z,98941.19
2022-12-12T10:42:03.437Z,98930.50
2022-12-12T10:45:00.124Z,98920.63
2022-12-12T10:47:26.718Z,98901.03
2022-12-12T10:50:17.133Z,98896.19
2022-12-12T10:52:43.621Z,98883.53
2022-12-12T10:55:51.693Z,98875.44
2022-12-12T10:58:18.387Z,98876.63
2022-12-12T11:00:48.364Z,98874.03
2022-12-12T11:03:35.634Z,98866.50
2022-12-12T11:06:11.365Z,98868.56
2022-12-12T11:08:38.709Z,98862.22
2022-12-12T11:11:28.778Z,98843.59
2022-12-12T11:13:58.184Z,98839.69
2022-12-12T11:16:28.904Z,98828.94
2022-12-12T11:19:16.885Z,98829.44
2022-12-12T11:21:44.818Z,98816.72
2022-12-12T11:24:23.957Z,98810.31
2022-12-12T11:27:00.444Z,98798.47
2022-12-12T11:29:48.269Z,98781.78
2022-12-12T11:32:19.130Z,98770.97
2022-12-12T11:34:58.280Z,98757.84
2022-12-12T11:37:28.985Z,98746.34
2022-12-12T11:39:57.303Z,98738.25
2022-12-12T11:42:30.132Z,98727.00
2022-12-12T11:45:00.674Z,98718.56
2022-12-12T11:47:38.739Z,98711.25
2022-12-12T11:50:18.413Z,98715.88
2022-12-12T11:52:45.369Z,98714.38
2022-12-12T11:55:17.819Z,98698.19
2022-12-12T11:57:50.529Z,98707.97
2022-12-12T12:00:20.622Z,98695.72
2022-12-12T12:03:08.993Z,98686.50
2022-12-12T12:05:41.343Z,98687.91
2022-12-12T12:08:35.432Z,98683.63
2022-12-12T12:11:02.095Z,98671.00
2022-12-12T12:14:11.189Z,98680.22
2022-12-12T12:16:46.783Z,98675.56
2022-12-12T12:19:46.688Z,98683.25
2022-12-12T12:22:31.490Z,98682.66
2022-12-12T12:25:33.109Z,98672.25
2022-12-12T12:28:18.326Z,98665.72
2022-12-12T12:31:06.000Z,98657.47
2022-12-12T12:33:32.563Z,98645.44
2022-12-12T12:36:24.826Z,98637.16
2022-12-12T12:39:18.772Z,98622.31
2022-12-12T12:42:06.159Z,98626.31
2022-12-12T12:44:55.092Z,98617.16
2022-12-12T12:47:54.583Z,98613.19
2022-12-12T12:50:38.271Z,98620.78
2022-12-12T12:53:07.859Z,98622.06
2022-12-12T12:55:43.986Z,98624.13
2022-12-12T12:58:28.983Z,98614.94
2022-12-12T13:01:02.725Z,98619.34
2022-12-12T13:03:37.975Z,98603.22
2022-12-12T13:06:12.900Z,98611.53
2022-12-12T13:08:57.977Z,98610.53
2022-12-12T13:11:32.563Z,98614.53
2022-12-12T13:14:16.677Z,98602.25
2022-12-12T13:16:44.182Z,98592.63
2022-12-12T13:19:41.774Z,98567.41
2022-12-12T13:22:18.290Z,98557.13
2022-12-12T13:25:00.138Z,98544.44
2022-12-12T13:27:33.146Z,98546.19
2022-12-12T13:30:12.548Z,98542.19
2022-12-12T13:32:54.381Z,98553.78
2022-12-12T13:35:35.375Z,98545.88
2022-12-12T13:38:03.124Z,98540.03
2022-12-12T13:40:37.476Z,98541.63
2022-12-12T13:43:10.085Z,98528.06
2022-12-12T13:45:46.005Z,98531.34
2022-12-12T13:48:27.835Z,98519.72
2022-12-12T13:51:28.430Z,98523.78
2022-12-12T13:54:12.266Z,98507.81
2022-12-12T13:56:57.556Z,98509.44
2022-12-12T13:59:27.056Z,98511.19
2022-12-12T14:02:28.535Z,98495.97
2022-12-12T14:05:26.274Z,98494.09
2022-12-12T14:07:59.369Z,98501.44
2022-12-12T14:10:36.149Z,98496.28
2022-12-12T14:13:21.470Z,98488.66
2022-12-12T14:15:55.680Z,98481.88
2022-12-12T14:18:29.890Z,98471.63
2022-12-12T14:21:00.336Z,98464.78
2022-12-12T14:23:34.527Z,98448.69
2022-12-12T14:26:01.918Z,98439.59
2022-12-12T14:28:31.392Z,98430.28
2022-12-12T14:31:14.823Z,98405.59
2022-12-12T14:33:50.468Z,98387.88
2022-12-12T14:36:35.612Z,98363.72
2022-12-12T14:39:10.991Z,98331.28
2022-12-12T14:41:39.984Z,98309.03
2022-12-12T14:44:38.017Z,98301.94
2022-12-12T14:47:10.027Z,98320.00
2022-12-12T14:49:36.676Z,98321.53
2022-12-12T14:52:03.941Z,98301.06
2022-12-12T14:54:31.033Z,98298.50
2022-12-12T14:57:01.580Z,98292.63
2022-12-12T14:59:34.060Z,98275.13
2022-12-12T15:02:21.173Z,98270.41
2022-12-12T15:04:58.062Z,98263.31
2022-12-12T15:07:33.120Z,98266.81
2022-12-12T15:09:59.879Z,98263.16
2022-12-12T15:12:34.693Z,98252.84
2022-12-12T15:15:01.488Z,98246.09
2022-12-12T15:17:36.427Z,98228.25
2022-12-12T15:20:15.089Z,98196.22
2022-12-12T15:22:57.548Z,98163.63
2022-12-12T15:25:27.082Z,98133.06
2022-12-12T15:27:56.555Z,98122.09
2022-12-12T15:30:39.539Z,98105.25
2022-12-12T15:33:26.594Z,98086.78
2022-12-12T15:35:57.914Z,98090.09
2022-12-12T15:38:28.198Z,98105.16
2022-12-12T15:40:58.775Z,98094.41
2022-12-12T15:43:28.750Z,98089.47
2022-12-12T15:45:56.904Z,98063.75
2022-12-12T15:48:25.707Z,98079.19
2022-12-12T15:50:59.214Z,98066.66
2022-12-12T15:53:27.938Z,98065.78
2022-12-12T15:56:06.456Z,98058.53
2022-12-12T15:58:40.341Z,98067.16
2022-12-12T16:01:20.097Z,98063.69
2022-12-12T16:04:03.583Z,98057.22
2022-12-12T16:06:33.159Z,98067.53
2022-12-12T16:09:01.604Z,98075.28
2022-12-12T16:11:31.831Z,98084.00
2022-12-12T16:13:59.543Z,98080.75
2022-12-12T16:16:43.661Z,98080.03
2022-12-12T16:19:27.695Z,98061.47
2022-12-12T16:21:55.454Z,98062.50
2022-12-12T16:24:26.324Z,98064.47
2022-12-12T16:27:00.696Z,98085.06
2022-12-12T16:29:27.214Z,98110.06
2022-12-12T16:31:56.055Z,98116.13
2022-12-12T16:34:22.999Z,98111.13
2022-12-12T16:36:49.538Z,98119.44
2022-12-12T16:39:17.053Z,98126.38
2022-12-12T16:41:43.686Z,98128.81
2022-12-12T16:44:10.709Z,98136.25
2022-12-12T16:46:37.296Z,98121.16
2022-12-12T16:49:05.077Z,98118.75
2022-12-12T16:51:35.171Z,98118.59
2022-12-12T16:54:01.819Z,98106.72
2022-12-12T16:56:28.382Z,98101.66
2022-12-12T16:58:56.143Z,98104.16
2022-12-12T17:01:23.008Z,98110.13
2022-12-12T17:03:49.631Z,98100.81
2022-12-12T17:06:16.481Z,98108.72
2022-12-12T17:08:43.032Z,98092.31
2022-12-12T17:11:11.174Z,98080.53
2022-12-12T17:13:41.134Z,98065.38
2022-12-12T17:16:07.789Z,98066.25
2022-12-12T17:18:34.348Z,98058.59
2022-12-12T17:21:00.829Z,98052.59
2022-12-12T17:23:27.492Z,98037.66
2022-12-12T17:26:00.658Z,98056.41
2022-12-12T17:28:30.887Z,98054.44
2022-12-12T17:30:57.449Z,98038.38
2022-12-12T17:33:24.025Z,98036.81
2022-12-12T17:36:02.389Z,98036.75
2022-12-12T17:38:30.526Z,98040.22
2022-12-12T17:40:58.179Z,98030.88
2022-12-12T17:43:25.176Z,98038.66
2022-12-12T17:46:02.642Z,98021.69
2022-12-12T17:48:31.486Z,98018.91
2022-12-12T17:50:59.693Z,98031.00
2022-12-12T17:53:27.525Z,98016.66
2022-12-12T17:56:01.744Z,98011.66
2022-12-12T17:58:40.056Z,98025.25
2022-12-12T18:01:21.831Z,98032.94
2022-12-12T18:03:49.132Z,98041.44
2022-12-12T18:06:16.947Z,98043.94
2022-12-12T18:08:45.222Z,98059.28
2022-12-12T18:11:14.983Z,98068.72
2022-12-12T18:13:42.309Z,98049.88
2022-12-12T18:16:11.548Z,98058.47
2022-12-12T18:18:38.805Z,98061.78
2022-12-12T18:21:10.593Z,98081.41
2022-12-12T18:23:40.005Z,98086.31
2022-12-12T18:26:14.891Z,98076.16
2022-12-12T18:28:45.270Z,98059.97
2022-12-12T18:31:11.748Z,98050.63
2022-12-12T18:33:38.520Z,98046.38
2022-12-12T18:36:10.551Z,98055.84
2022-12-12T18:38:37.174Z,98049.84
2022-12-12T18:41:04.498Z,98068.47
2022-12-12T18:43:31.334Z,98055.59
2022-12-12T18:46:03.157Z,98067.34
2022-12-12T18:48:30.005Z,98048.84
2022-12-12T18:51:07.807Z,98019.38
2022-12-12T18:53:35.120Z,98020.31
2022-12-12T18:56:06.828Z,98024.13
2022-12-12T18:58:34.359Z,98026.03
2022-12-12T19:01:08.334Z,98036.06
2022-12-12T19:03:36.406Z,98024.09
2022-12-12T19:06:14.121Z,98019.13
2022-12-12T19:08:42.271Z,98002.81
2022-12-12T19:11:09.763Z,98011.34
2022-12-12T19:13:36.800Z,98011.28
2022-12-12T19:16:08.235Z,97992.72
2022-12-12T19:18:35.284Z,97986.78
2022-12-12T19:21:12.060Z,97990.66
2022-12-12T19:23:39.098Z,97993.03
2022-12-12T19:26:07.005Z,97994.66
2022-12-12T19:28:33.791Z,98000.66
2022-12-12T19:31:00.715Z,97986.28
2022-12-12T19:33:27.372Z,97979.41
2022-12-12T19:35:53.896Z,97980.88
2022-12-12T19:38:24.768Z,97979.38
2022-12-12T19:40:51.809Z,97970.63
2022-12-12T19:43:18.313Z,97966.44
2022-12-12T19:45:44.917Z,98000.31
2022-12-12T19:48:11.548Z,98011.13
2022-12-12T19:50:38.271Z,98003.50
2022-12-12T19:53:04.869Z,97997.50
2022-12-12T19:55:31.651Z,98004.34
2022-12-12T19:57:58.324Z,98009.59
2022-12-12T20:00:26.024Z,98021.28
2022-12-12T20:02:52.651Z,98046.06
2022-12-12T20:05:19.173Z,98038.44
2022-12-12T20:07:45.734Z,98023.84
2022-12-12T20:10:13.172Z,98029.75
2022-12-12T20:12:46.193Z,98057.75
2022-12-12T20:15:18.530Z,98078.59
2022-12-12T20:17:45.075Z,98082.13
2022-12-12T20:20:11.840Z,98090.56
2022-12-12T20:22:38.865Z,98088.84
2022-12-12T20:25:05.880Z,98103.03
2022-12-12T20:27:32.491Z,98104.97
2022-12-12T20:29:59.033Z,98099.06
2022-12-12T20:32:25.657Z,98091.09
2022-12-12T20:34:52.721Z,98093.63
2022-12-12T20:37:20.355Z,98078.31
2022-12-12T20:39:47.116Z,98077.38
2022-12-12T20:42:13.636Z,98068.97
2022-12-12T20:44:40.171Z,98108.66
2022-12-12T20:47:07.969Z,98071.63
2022-12-12T20:49:34.528Z,98066.38
2022-12-12T20:52:01.055Z,98109.81
2022-12-12T20:54:29.277Z,98056.31
2022-12-12T20:56:57.613Z,98090.13
2022-12-12T20:59:25.185Z,98124.19
2022-12-12T21:01:52.377Z,98115.75
2022-12-12T21:04:19.126Z,98103.69
2022-12-12T21:06:51.029Z,98098.50
2022-12-12T21:09:24.249Z,98083.09
2022-12-12T21:11:58.149Z,98054.41
2022-12-12T21:14:27.114Z,98078.91
2022-12-12T21:16:54.252Z,98023.47
2022-12-12T21:19:22.080Z,98009.31
2022-12-12T21:21:49.099Z,98005.75
2022-12-12T21:24:17.252Z,98005.97
2022-12-12T21:26:44.680Z,98010.44
2022-12-12T21:29:11.841Z,98015.38
2022-12-12T21:31:48.173Z,98031.97
2022-12-12T21:34:17.819Z,98022.44
2022-12-12T21:36:44.650Z,97984.84
2022-12-12T21:39:11.913Z,97967.69
2022-12-12T21:41:41.476Z,97935.88
2022-12-12T21:44:08.022Z,97933.50
2022-12-12T21:46:34.633Z,97944.44
2022-12-12T21:49:19.911Z,97915.97
2022-12-12T21:51:46.802Z,97926.91
2022-12-12T21:54:15.395Z,97918.19
2022-12-12T21:56:42.831Z,97898.69
2022-12-12T21:59:11.319Z,97884.34
2022-12-12T22:01:38.212Z,97864.91
2022-12-12T22:04:05.133Z,97860.44
2022-12-12T22:06:34.688Z,97864.22
2022-12-12T22:09:06.444Z,97872.75
2022-12-12T22:11:46.890Z,97854.56
2022-12-12T22:14:14.954Z,97873.41
2022-12-12T22:16:41.604Z,97867.75
2022-12-12T22:19:11.514Z,97860.91
2022-12-12T22:21:38.304Z,97851.69
2022-12-12T22:24:05.961Z,97900.78
2022-12-12T22:26:34.268Z,97855.09
2022-12-12T22:29:05.856Z,97889.16
2022-12-12T22:31:35.722Z,97911.09
2022-12-12T22:34:05.513Z,97903.50
2022-12-12T22:36:37.028Z,97899.44
2022-12-12T22:39:06.410Z,97898.53
2022-12-12T22:41:33.169Z,97884.97
2022-12-12T22:44:05.474Z,97895.09
2022-12-12T22:46:32.733Z,97903.84
2022-12-12T22:49:02.108Z,97897.88
2022-12-12T22:51:31.606Z,97910.66
2022-12-12T22:54:03.896Z,97916.50
2022-12-12T22:56:33.636Z,97924.22
2022-12-12T22:59:00.414Z,97897.81
2022-12-12T23:01:28.505Z,97865.06
2022-12-12T23:03:55.802Z,97874.34
2022-12-12T23:06:31.555Z,97910.03
2022-12-12T23:09:00.991Z,97914.94
2022-12-12T23:11:29.167Z,97930.91
2022-12-12T23:13:59.820Z,97941.25
2022-12-12T23:16:27.650Z,97932.75
2022-12-12T23:18:54.808Z,97951.22
2022-12-12T23:21:23.420Z,97948.63
2022-12-12T23:23:51.483Z,97947.75
2022-12-12T23:26:21.230Z,97947.06
2022-12-12T23:28:48.657Z,97950.69
2022-12-12T23:31:24.371Z,97935.34
2022-12-12T23:33:56.548Z,97932.66
2022-12-12T23:36:23.987Z,97943.63
2022-12-12T23:38:58.124Z,97910.34
2022-12-12T23:41:25.577Z,97923.91
2022-12-12T23:43:52.994Z,97929.22
2022-12-12T23:46:29.382Z,97931.75
2022-12-12T23:49:06.934Z,97907.00
2022-12-12T23:51:36.759Z,97896.78
2022-12-12T23:54:06.456Z,97918.75
2022-12-12T23:56:33.413Z,97915.41
2022-12-12T23:58:59.996Z,97913.75
